ZW-0023 weather

Peoza Pasi Airstrip
Mashonaland Central Province, Zimbabwe

Public forecast

Using degrees Celsius for public forecast. Weather courtesy of forecast.io.

Closest aviation weather report (METAR) to Peoza Pasi Airstrip

Report is more than 6 hours old.

Closest report is Kariba International Airport, 93.0 nm (172.2 km) WSW. Retrieved 2020/08/03 12:00 UTC (15 hours ago):

FVKB 031200Z 16010KT CAVOK 26/12 Q1022 NOSIG

Closest aviation forecast (TAF) to Peoza Pasi Airstrip

Forecast is more than 12 hours old.

Closest forecast is Jeki Airport, 50.2 nm (93.0 km) WNW. Retrieved 2020/07/22 18:00 UTC (12 days ago):

TAF FLJK 221600Z 2218/2324 13005KT CAVOK BECMG 2306/2308 09010G15KT BECMG 2311/2313 9999 SCT040 BKN080